createdAt,value
2022-10-12T00:00:20.700Z,958.7229614
2022-10-12T00:01:21.874Z,958.7288818
2022-10-12T00:02:22.537Z,958.7523193
2022-10-12T00:03:23.132Z,958.7321777
2022-10-12T00:04:23.688Z,958.763855
2022-10-12T00:05:24.192Z,958.7785034
2022-10-12T00:06:24.695Z,958.7888794
2022-10-12T00:07:25.250Z,958.7840576
2022-10-12T00:08:26.376Z,958.8264771
2022-10-12T00:09:27.018Z,958.8303833
2022-10-12T00:10:28.120Z,958.8477173
2022-10-12T00:11:28.594Z,958.8591309
2022-10-12T00:12:29.104Z,958.8630371
2022-10-12T00:13:29.684Z,958.8320313
2022-10-12T00:14:30.278Z,958.8407593
2022-10-12T00:15:30.840Z,958.8375854
2022-10-12T00:16:31.394Z,958.8620605
2022-10-12T00:17:31.791Z,958.8783569
2022-10-12T00:18:32.357Z,958.8529053
2022-10-12T00:19:33.991Z,958.8783569
2022-10-12T00:20:34.679Z,958.8707886
2022-10-12T00:21:35.185Z,958.9047852
2022-10-12T00:22:35.736Z,958.8956299
2022-10-12T00:23:36.202Z,958.883728
2022-10-12T00:24:40.581Z,958.895752
2022-10-12T00:25:37.425Z,958.850769
2022-10-12T00:26:38.021Z,958.8716431
2022-10-12T00:27:38.864Z,958.8739014
2022-10-12T00:28:39.027Z,958.9032593
2022-10-12T00:29:40.389Z,958.8950806
2022-10-12T00:30:41.011Z,958.8862305
2022-10-12T00:31:41.549Z,958.9048462
2022-10-12T00:32:42.080Z,958.913147
2022-10-12T00:33:42.503Z,958.8585205
2022-10-12T00:34:43.018Z,958.8478394
2022-10-12T00:35:43.653Z,958.8682861
2022-10-12T00:36:44.258Z,958.8673706
2022-10-12T00:37:44.866Z,958.9000244
2022-10-12T00:38:45.375Z,958.8869629
2022-10-12T00:39:46.354Z,958.8895264
2022-10-12T00:40:46.840Z,958.894165
2022-10-12T00:41:48.212Z,958.904541
2022-10-12T00:42:49.291Z,958.90802
2022-10-12T00:44:20.085Z,958.9488525
2022-10-12T00:45:20.757Z,958.9472046
2022-10-12T00:46:21.235Z,958.9295044
2022-10-12T00:47:21.857Z,958.9940796
2022-10-12T00:48:22.499Z,958.9157715
2022-10-12T00:49:23.069Z,958.9238892
2022-10-12T00:50:24.108Z,958.9435425
2022-10-12T00:51:24.606Z,958.9142456
2022-10-12T00:52:25.186Z,958.9060059
2022-10-12T00:53:25.806Z,958.9360352
2022-10-12T00:54:26.292Z,958.9037476
2022-10-12T00:55:26.800Z,958.928894
2022-10-12T00:56:27.302Z,958.9085693
2022-10-12T00:57:27.780Z,958.9151611
2022-10-12T00:58:28.507Z,958.9451294
2022-10-12T00:59:29.044Z,958.9386597
2022-10-12T01:00:30.234Z,958.9370117
2022-10-12T01:01:30.696Z,958.9891968
2022-10-12T01:02:31.144Z,958.9859619
2022-10-12T01:03:31.772Z,959.0067749
2022-10-12T01:04:32.367Z,959.0172729
2022-10-12T01:05:32.979Z,959.0187988
2022-10-12T01:06:33.551Z,959.0240479
2022-10-12T01:07:34.053Z,959.0206299
2022-10-12T01:08:34.576Z,959.0408325
2022-10-12T01:09:35.152Z,959.0476685
2022-10-12T01:10:36.688Z,959.0427856
2022-10-12T01:11:37.301Z,959.0410767
2022-10-12T01:12:37.803Z,959.0613403
2022-10-12T01:13:38.290Z,959.0626831
2022-10-12T01:14:38.745Z,959.0357666
2022-10-12T01:15:39.344Z,959.0662231
2022-10-12T01:16:39.950Z,959.0658569
2022-10-12T01:17:40.772Z,959.1157837
2022-10-12T01:18:41.642Z,959.0929565
2022-10-12T01:19:42.087Z,959.0766602
2022-10-12T01:20:43.185Z,959.090332
2022-10-12T01:21:43.815Z,959.1213379
2022-10-12T01:22:44.335Z,959.1082764
2022-10-12T01:23:45.654Z,959.1386719
2022-10-12T01:24:46.137Z,959.1712646
2022-10-12T01:25:46.679Z,959.1373291
2022-10-12T01:26:47.345Z,959.161377
2022-10-12T01:27:47.904Z,959.1098633
2022-10-12T01:29:19.126Z,959.1107788
2022-10-12T01:30:19.632Z,959.0999756
2022-10-12T01:31:20.157Z,959.0493774
2022-10-12T01:32:20.884Z,959.0830688
2022-10-12T01:33:21.549Z,959.0684204
2022-10-12T01:34:22.190Z,959.0939331
2022-10-12T01:35:22.666Z,959.0935669
2022-10-12T01:36:23.168Z,959.0984497
2022-10-12T01:37:23.714Z,959.0994263
2022-10-12T01:38:24.291Z,959.1066895
2022-10-12T01:39:24.897Z,959.1098633
2022-10-12T01:40:26.416Z,959.0822144
2022-10-12T01:41:26.883Z,959.0988159
2022-10-12T01:42:28.408Z,959.1135864
2022-10-12T01:43:29.038Z,959.0998535
2022-10-12T01:44:29.693Z,959.1070557
2022-10-12T01:45:30.336Z,959.098877
2022-10-12T01:46:30.818Z,959.0992432
2022-10-12T01:47:31.438Z,959.1279907
2022-10-12T01:48:31.975Z,959.1433716
2022-10-12T01:49:32.681Z,959.1159668
2022-10-12T01:50:34.212Z,959.121582
2022-10-12T01:51:34.738Z,959.147644
2022-10-12T01:52:35.358Z,959.1420898
2022-10-12T01:53:35.806Z,959.1235352
2022-10-12T01:54:36.383Z,959.0999756
2022-10-12T01:55:36.963Z,959.1311035
2022-10-12T01:56:37.609Z,959.1359253
2022-10-12T01:57:38.549Z,959.1379395
2022-10-12T01:58:38.639Z,959.1314087
2022-10-12T01:59:39.160Z,959.1193848
2022-10-12T02:00:40.801Z,959.1498413
2022-10-12T02:01:41.384Z,959.092041
2022-10-12T02:02:41.997Z,959.1120605
2022-10-12T02:03:42.467Z,959.1038208
2022-10-12T02:04:42.987Z,959.0979614
2022-10-12T02:05:43.654Z,959.1387329
2022-10-12T02:06:44.265Z,959.1165771
2022-10-12T02:07:44.885Z,959.1312256
2022-10-12T02:08:45.356Z,959.1377563
2022-10-12T02:09:45.862Z,959.1286011
2022-10-12T02:10:47.146Z,959.1504517
2022-10-12T02:11:48.920Z,959.1498413
2022-10-12T02:13:19.803Z,959.1129761
2022-10-12T02:14:20.626Z,959.1253662
2022-10-12T02:15:21.071Z,959.1257935
2022-10-12T02:16:21.548Z,959.0957031
2022-10-12T02:17:22.183Z,959.0990601
2022-10-12T02:18:22.755Z,959.1287231
2022-10-12T02:19:23.408Z,959.1085815
2022-10-12T02:20:24.863Z,959.0501709
2022-10-12T02:21:25.360Z,959.0289917
2022-10-12T02:22:25.909Z,959.0114136
2022-10-12T02:23:27.210Z,959.006897
2022-10-12T02:24:27.822Z,958.9703369
2022-10-12T02:25:28.372Z,958.9957886
2022-10-12T02:26:28.852Z,958.9657593
2022-10-12T02:27:29.392Z,958.9412231
2022-10-12T02:28:30.167Z,958.9484253
2022-10-12T02:29:30.732Z,958.9265747
2022-10-12T02:30:31.917Z,958.9151611
2022-10-12T02:31:32.420Z,958.9020996
2022-10-12T02:32:32.934Z,958.8945313
2022-10-12T02:33:33.409Z,958.8805542
2022-10-12T02:34:34.080Z,958.8961792
2022-10-12T02:35:34.655Z,958.8641968
2022-10-12T02:36:35.223Z,958.8804932
2022-10-12T02:37:36.115Z,958.8713989
2022-10-12T02:38:36.259Z,958.8468628
2022-10-12T02:39:36.879Z,958.862793
2022-10-12T02:40:38.436Z,958.8415527
2022-10-12T02:41:39.063Z,958.8742065
2022-10-12T02:43:08.335Z,958.8585815
2022-10-12T02:43:40.120Z,958.9101563
2022-10-12T02:44:40.602Z,958.8720093
2022-10-12T02:45:41.269Z,958.880127
2022-10-12T02:46:41.874Z,958.9023438
2022-10-12T02:47:42.442Z,958.9098511
2022-10-12T02:48:42.925Z,958.9223633
2022-10-12T02:49:43.418Z,958.9249878
2022-10-12T02:50:45.018Z,958.927002
2022-10-12T02:51:45.620Z,958.9400024
2022-10-12T02:52:46.174Z,958.9483032
2022-10-12T02:53:46.663Z,958.9354858
2022-10-12T02:54:47.604Z,958.9152832
2022-10-12T02:56:18.552Z,958.9006348
2022-10-12T02:57:19.172Z,958.9276733
2022-10-12T02:58:20.950Z,958.9234619
2022-10-12T02:59:21.489Z,958.8973389
2022-10-12T03:00:21.991Z,958.9348145
2022-10-12T03:01:23.206Z,958.9283447
2022-10-12T03:02:23.740Z,958.9338989
2022-10-12T03:03:24.329Z,958.9420166
2022-10-12T03:04:24.942Z,958.9126587
2022-10-12T03:05:25.407Z,958.894043
2022-10-12T03:06:25.938Z,958.8754883
2022-10-12T03:07:26.516Z,958.882019
2022-10-12T03:08:27.102Z,958.8803711
2022-10-12T03:09:27.693Z,958.8699341
2022-10-12T03:10:28.874Z,958.8878784
2022-10-12T03:11:30.392Z,958.8503418
2022-10-12T03:12:30.898Z,958.8532715
2022-10-12T03:13:31.442Z,958.8571777
2022-10-12T03:14:31.988Z,958.8620605
2022-10-12T03:15:32.584Z,958.8620605
2022-10-12T03:16:33.103Z,958.8485718
2022-10-12T03:17:33.645Z,958.8495483
2022-10-12T03:18:34.113Z,958.8534546
2022-10-12T03:19:34.726Z,958.8518677
2022-10-12T03:20:35.964Z,958.8110962
2022-10-12T03:21:36.503Z,958.8279419
2022-10-12T03:22:37.030Z,958.8297119
2022-10-12T03:23:37.511Z,958.8225098
2022-10-12T03:24:38.092Z,958.8225098
2022-10-12T03:25:38.680Z,958.8890381
2022-10-12T03:26:39.289Z,958.8371582
2022-10-12T03:27:40.291Z,958.8534546
2022-10-12T03:28:40.314Z,958.8796387
2022-10-12T03:29:40.726Z,958.8682251
2022-10-12T03:30:41.924Z,958.8345337
2022-10-12T03:31:42.546Z,958.831665
2022-10-12T03:32:43.135Z,958.8371582
2022-10-12T03:33:43.583Z,958.8599854
2022-10-12T03:34:44.061Z,958.8861694
2022-10-12T03:35:44.676Z,958.887207
2022-10-12T03:36:45.335Z,958.8632813
2022-10-12T03:37:45.991Z,958.9067383
2022-10-12T03:38:46.455Z,958.9067383
2022-10-12T03:40:17.447Z,958.9159546
2022-10-12T03:41:18.765Z,958.9473267
2022-10-12T03:42:19.945Z,958.9512329
2022-10-12T03:43:20.805Z,958.9473267
2022-10-12T03:44:21.363Z,958.9244385
2022-10-12T03:45:21.940Z,958.8928223
2022-10-12T03:46:22.414Z,958.9281006
2022-10-12T03:47:22.985Z,958.9401855
2022-10-12T03:48:23.622Z,958.9346313
2022-10-12T03:49:24.167Z,958.9140625
2022-10-12T03:50:24.648Z,958.9199219
2022-10-12T03:51:26.108Z,958.8840332
2022-10-12T03:52:26.716Z,958.9003296
2022-10-12T03:53:27.284Z,958.9019775
2022-10-12T03:54:27.964Z,958.8970337
2022-10-12T03:55:28.491Z,958.8947754
2022-10-12T03:56:28.973Z,958.8840332
2022-10-12T03:57:29.503Z,958.8986816
2022-10-12T03:58:30.176Z,958.8922119
2022-10-12T03:59:30.760Z,958.9117432
2022-10-12T04:00:31.400Z,958.8774414
2022-10-12T04:01:32.679Z,958.8584595
2022-10-12T04:02:33.150Z,958.8904419
2022-10-12T04:03:33.657Z,958.8856201
2022-10-12T04:04:34.348Z,958.8584595
2022-10-12T04:05:34.976Z,958.8895264
2022-10-12T04:06:35.647Z,958.8928223
2022-10-12T04:07:36.358Z,958.8796997
2022-10-12T04:08:36.616Z,958.9074707
2022-10-12T04:09:37.234Z,958.8764648
2022-10-12T04:10:37.878Z,958.8781128
2022-10-12T04:11:39.313Z,958.8862305
2022-10-12T04:12:39.892Z,958.8634644
2022-10-12T04:13:40.411Z,958.8421631
2022-10-12T04:14:40.885Z,958.9296875
2022-10-12T04:15:41.470Z,958.8954468
2022-10-12T04:16:42.962Z,958.8814087
2022-10-12T04:17:43.577Z,958.8980713
2022-10-12T04:18:44.128Z,958.8856201
2022-10-12T04:19:44.660Z,958.9160156
2022-10-12T04:20:45.123Z,958.8866577
2022-10-12T04:21:46.707Z,958.8735962
2022-10-12T04:23:17.605Z,958.8718872
2022-10-12T04:24:18.122Z,958.8915405
2022-10-12T04:25:18.608Z,958.8790894
2022-10-12T04:26:19.233Z,958.9176636
2022-10-12T04:27:19.920Z,958.9074707
2022-10-12T04:28:20.835Z,958.899353
2022-10-12T04:29:21.306Z,958.9395142
2022-10-12T04:30:21.770Z,958.8986816
2022-10-12T04:31:22.899Z,958.9140015
2022-10-12T04:32:23.591Z,958.9195557
2022-10-12T04:33:24.217Z,958.9172363
2022-10-12T04:34:24.839Z,958.9195557
2022-10-12T04:35:25.403Z,958.9195557
2022-10-12T04:36:25.874Z,958.8989258
2022-10-12T04:37:26.373Z,958.9054565
2022-10-12T04:38:26.951Z,958.909668
2022-10-12T04:39:28.281Z,958.883606
2022-10-12T04:40:28.902Z,958.9025879
2022-10-12T04:41:30.400Z,958.9074707
2022-10-12T04:42:30.865Z,958.9000244
2022-10-12T04:43:31.445Z,958.8892212
2022-10-12T04:44:32.499Z,958.9104614
2022-10-12T04:45:32.676Z,958.8778076
2022-10-12T04:46:33.198Z,958.8875122
2022-10-12T04:47:33.738Z,958.9244385
2022-10-12T04:48:34.184Z,958.892395
2022-10-12T04:49:34.868Z,958.9048462
2022-10-12T04:50:35.495Z,958.8826294
2022-10-12T04:51:36.974Z,958.9152832
2022-10-12T04:52:37.508Z,958.921875
2022-10-12T04:53:38.026Z,958.8995972
2022-10-12T04:54:38.613Z,958.9152832
2022-10-12T04:55:39.183Z,958.8708496
2022-10-12T04:56:42.126Z,958.902832
2022-10-12T04:57:40.953Z,958.914917
2022-10-12T04:58:40.891Z,958.9099731
2022-10-12T04:59:41.400Z,958.899231
2022-10-12T05:00:41.959Z,958.9067383
2022-10-12T05:01:43.377Z,958.9204712
2022-10-12T05:02:44.558Z,958.9161987
2022-10-12T05:03:45.905Z,958.9138794
2022-10-12T05:05:16.599Z,958.920105
2022-10-12T05:06:17.251Z,958.9315796
2022-10-12T05:07:17.853Z,958.8917236
2022-10-12T05:08:18.446Z,958.8988037
2022-10-12T05:09:18.960Z,958.9004517
2022-10-12T05:10:19.416Z,958.8965454
2022-10-12T05:11:20.911Z,958.9020996
2022-10-12T05:12:21.542Z,958.8988037
2022-10-12T05:13:22.187Z,958.9151611
2022-10-12T05:14:22.726Z,958.9057617
2022-10-12T05:15:23.212Z,958.8939819
2022-10-12T05:16:23.819Z,958.8659668
2022-10-12T05:17:24.394Z,958.87146
2022-10-12T05:18:25.060Z,958.8731079
2022-10-12T05:19:25.662Z,958.8509521
2022-10-12T05:20:26.258Z,958.8704834
2022-10-12T05:21:27.435Z,958.8858032
2022-10-12T05:22:27.884Z,958.8345337
2022-10-12T05:23:29.287Z,958.8531494
2022-10-12T05:24:29.913Z,958.866272
2022-10-12T05:25:30.593Z,958.8502197
2022-10-12T05:26:31.087Z,958.8378296
2022-10-12T05:27:31.601Z,958.8446655
2022-10-12T05:28:36.998Z,958.8375244
2022-10-12T05:29:33.421Z,958.8816528
2022-10-12T05:30:34.048Z,958.8206177
2022-10-12T05:31:35.446Z,958.854248
2022-10-12T05:32:36.046Z,958.8270874
2022-10-12T05:33:36.384Z,958.8428345
2022-10-12T05:34:37.046Z,958.8682861
2022-10-12T05:35:37.689Z,958.8775024
2022-10-12T05:36:38.267Z,958.8513794
2022-10-12T05:37:39.040Z,958.8604736
2022-10-12T05:38:39.254Z,958.8712769
2022-10-12T05:39:39.873Z,958.8787231
2022-10-12T05:40:41.507Z,958.8909302
2022-10-12T05:41:42.970Z,958.8973999
2022-10-12T05:42:43.519Z,958.8745117
2022-10-12T05:43:44.000Z,958.9277954
2022-10-12T05:44:44.482Z,958.8918457
2022-10-12T05:45:45.090Z,958.9196777
2022-10-12T05:47:16.105Z,958.923584
2022-10-12T05:48:16.604Z,958.8895874
2022-10-12T05:49:17.067Z,958.9255371
2022-10-12T05:50:17.568Z,958.8879395
2022-10-12T05:51:18.193Z,958.9261475
2022-10-12T05:52:19.794Z,958.913147
2022-10-12T05:53:20.622Z,958.9398193
2022-10-12T05:54:21.152Z,958.9261475
2022-10-12T05:55:21.658Z,958.9415894
2022-10-12T05:56:22.136Z,958.9088135
2022-10-12T05:57:22.784Z,958.9046021
2022-10-12T05:58:23.381Z,958.932373
2022-10-12T05:59:23.970Z,958.9349976
2022-10-12T06:00:24.475Z,958.9193115
2022-10-12T06:01:24.995Z,958.9123535
2022-10-12T06:02:26.284Z,958.871582
2022-10-12T06:03:28.663Z,958.9172363
2022-10-12T06:04:27.418Z,958.9368896
2022-10-12T06:05:28.004Z,958.9414063
2022-10-12T06:06:28.467Z,958.9815674
2022-10-12T06:07:28.973Z,958.963623
2022-10-12T06:08:29.660Z,958.9821777
2022-10-12T06:09:30.263Z,958.9659424
2022-10-12T06:10:31.007Z,958.9799805
2022-10-12T06:11:34.029Z,959.0214233
2022-10-12T06:12:32.653Z,959.0175171
2022-10-12T06:13:33.193Z,959.0441895
2022-10-12T06:14:33.844Z,959.0828247
2022-10-12T06:15:34.523Z,959.05896
2022-10-12T06:16:35.022Z,959.0524292
2022-10-12T06:17:35.465Z,959.041626
2022-10-12T06:18:36.707Z,959.0292358
2022-10-12T06:19:37.366Z,959.0487671
2022-10-12T06:20:37.978Z,959.0706177
2022-10-12T06:21:39.515Z,959.0532837
2022-10-12T06:22:40.424Z,959.0898438
2022-10-12T06:23:40.450Z,959.154541
2022-10-12T06:24:41.076Z,959.1159668
2022-10-12T06:25:41.634Z,959.0931396
2022-10-12T06:26:42.222Z,959.1101074
2022-10-12T06:27:42.786Z,959.159668
2022-10-12T06:28:43.314Z,959.1606445
2022-10-12T06:29:43.741Z,959.1799316
2022-10-12T06:30:44.351Z,959.2001343
2022-10-12T06:32:16.616Z,959.1668701
2022-10-12T06:33:17.276Z,959.1716919
2022-10-12T06:34:17.764Z,959.2148438
2022-10-12T06:35:18.238Z,959.1663818
2022-10-12T06:36:18.838Z,959.1534424
2022-10-12T06:37:44.402Z,959.1606445
2022-10-12T06:38:20.072Z,959.2017212
2022-10-12T06:39:20.553Z,959.1550293
2022-10-12T06:40:21.041Z,959.1876831
2022-10-12T06:41:21.510Z,959.2310791
2022-10-12T06:42:22.847Z,959.1990356
2022-10-12T06:43:23.395Z,959.1951294
2022-10-12T06:44:24.014Z,959.2196655
2022-10-12T06:45:24.507Z,959.1890869
2022-10-12T06:46:25.019Z,959.1972046
2022-10-12T06:47:26.295Z,959.1726685
2022-10-12T06:48:26.857Z,959.1873169
2022-10-12T06:49:27.452Z,959.1972046
2022-10-12T06:50:27.997Z,959.2161865
2022-10-12T06:51:28.600Z,959.1411133
2022-10-12T06:52:29.701Z,959.1677856
2022-10-12T06:53:30.267Z,959.1776733
2022-10-12T06:54:30.828Z,959.1734619
2022-10-12T06:55:31.442Z,959.1400146
2022-10-12T06:56:31.947Z,959.2298584
2022-10-12T06:57:32.451Z,959.2174072
2022-10-12T06:58:32.930Z,959.2310791
2022-10-12T06:59:33.653Z,959.2583008
2022-10-12T07:00:34.322Z,959.2199707
2022-10-12T07:01:35.021Z,959.2468872
2022-10-12T07:02:36.517Z,959.2161865
2022-10-12T07:03:36.734Z,959.2651367
2022-10-12T07:04:37.397Z,959.2759399
2022-10-12T07:05:37.966Z,959.1960449
2022-10-12T07:06:38.579Z,959.2698364
2022-10-12T07:07:39.911Z,959.2865601
2022-10-12T07:08:40.378Z,959.2539063
2022-10-12T07:09:41.055Z,959.2487793
2022-10-12T07:10:41.656Z,959.2601318
2022-10-12T07:11:42.272Z,959.2661133
2022-10-12T07:12:43.735Z,959.284668
2022-10-12T07:14:14.841Z,959.2711182
2022-10-12T07:15:15.368Z,959.3057251
2022-10-12T07:16:16.024Z,959.326355
2022-10-12T07:17:16.745Z,959.3338013
2022-10-12T07:18:17.277Z,959.3485718
2022-10-12T07:19:17.768Z,959.3740845
2022-10-12T07:20:18.265Z,959.3718262
2022-10-12T07:21:18.908Z,959.4021606
2022-10-12T07:22:20.502Z,959.4211426
2022-10-12T07:23:21.200Z,959.3901367
2022-10-12T07:24:21.719Z,959.3904419
2022-10-12T07:25:22.218Z,959.414978
2022-10-12T07:26:22.761Z,959.4117432
2022-10-12T07:27:23.422Z,959.4003296
2022-10-12T07:28:24.142Z,959.3823242
2022-10-12T07:29:24.580Z,959.4088135
2022-10-12T07:30:25.078Z,959.3990479
2022-10-12T07:31:25.577Z,959.3944702
2022-10-12T07:32:27.043Z,959.4564819
2022-10-12T07:33:27.637Z,959.427124
2022-10-12T07:34:28.302Z,959.4009399
2022-10-12T07:35:28.857Z,959.4515381
2022-10-12T07:36:47.358Z,959.4434204
2022-10-12T07:37:29.948Z,959.4302979
2022-10-12T07:38:30.607Z,959.4179077
2022-10-12T07:39:31.769Z,959.4204712
2022-10-12T07:40:32.262Z,959.3967285
2022-10-12T07:41:32.777Z,959.414978
2022-10-12T07:42:33.952Z,959.4476318
2022-10-12T07:43:34.539Z,959.4368896
2022-10-12T07:44:35.153Z,959.4676514
2022-10-12T07:45:35.850Z,959.4685669
2022-10-12T07:46:36.322Z,959.4832764
2022-10-12T07:47:37.968Z,959.4771729
2022-10-12T07:48:38.177Z,959.4036865
2022-10-12T07:49:38.860Z,959.4579468
2022-10-12T07:50:39.391Z,959.4648438
2022-10-12T07:51:40.421Z,959.4642334
2022-10-12T07:52:41.454Z,959.4522095
2022-10-12T07:53:41.978Z,959.4420166
2022-10-12T07:54:42.443Z,959.4937744
2022-10-12T07:55:42.932Z,959.4614258
2022-10-12T07:56:44.437Z,959.4943848
2022-10-12T07:58:15.147Z,959.5170288
2022-10-12T07:59:15.615Z,959.4846802
2022-10-12T08:00:16.133Z,959.5128174
2022-10-12T08:01:16.688Z,959.5275269
2022-10-12T08:02:17.948Z,959.5223389
2022-10-12T08:03:18.400Z,959.564209
2022-10-12T08:04:19.724Z,959.4988403
2022-10-12T08:05:20.197Z,959.4840698
2022-10-12T08:06:20.836Z,959.5540771
2022-10-12T08:07:21.291Z,959.5549927
2022-10-12T08:08:21.763Z,959.463623
2022-10-12T08:09:22.209Z,959.4831543
2022-10-12T08:10:22.630Z,959.4481812
2022-10-12T08:11:23.157Z,959.4377441
2022-10-12T08:12:24.415Z,959.4436035
2022-10-12T08:13:24.912Z,959.4648438
2022-10-12T08:14:25.397Z,959.4348145
2022-10-12T08:15:25.856Z,959.4629517
2022-10-12T08:16:26.349Z,959.4351807
2022-10-12T08:17:26.828Z,959.4089966
2022-10-12T08:18:27.281Z,959.4626465
2022-10-12T08:19:30.620Z,959.446228
2022-10-12T08:20:28.225Z,959.427002
2022-10-12T08:21:28.683Z,959.4433594
2022-10-12T08:22:29.953Z,959.4213867
2022-10-12T08:23:30.409Z,959.4450073
2022-10-12T08:24:31.646Z,959.4213867
2022-10-12T08:25:32.108Z,959.4126587
2022-10-12T08:26:32.606Z,959.430603
2022-10-12T08:27:33.030Z,959.3989258
2022-10-12T08:28:33.600Z,959.4129639
2022-10-12T08:29:34.042Z,959.4018555
2022-10-12T08:30:34.527Z,959.4266357
2022-10-12T08:31:35.012Z,959.4053955
2022-10-12T08:32:36.418Z,959.4162598
2022-10-12T08:33:36.948Z,959.4378052
2022-10-12T08:34:37.524Z,959.3929443
2022-10-12T08:35:38.045Z,959.4371948
2022-10-12T08:36:38.530Z,959.3942261
2022-10-12T08:37:39.283Z,959.437439
2022-10-12T08:38:39.435Z,959.3995361
2022-10-12T08:39:39.924Z,959.4371338
2022-10-12T08:40:40.509Z,959.390625
2022-10-12T08:41:41.203Z,959.3948975
2022-10-12T08:42:42.199Z,959.4106445
2022-10-12T08:44:13.913Z,959.4318848
2022-10-12T08:45:14.632Z,959.4171753
2022-10-12T08:46:15.271Z,959.4508057
2022-10-12T08:47:16.453Z,959.4393921
2022-10-12T08:48:16.935Z,959.4030762
2022-10-12T08:49:17.416Z,959.4651489
2022-10-12T08:50:18.211Z,959.4564209
2022-10-12T08:51:18.746Z,959.4360962
2022-10-12T08:52:20.268Z,959.423645
2022-10-12T08:53:20.924Z,959.4360962
2022-10-12T08:54:21.496Z,959.4354858
2022-10-12T08:55:22.109Z,959.4576416
2022-10-12T08:56:22.749Z,959.458252
2022-10-12T08:57:24.268Z,959.4795532
2022-10-12T08:58:24.766Z,959.428894
2022-10-12T08:59:25.311Z,959.4429932
2022-10-12T09:00:25.869Z,959.4347534
2022-10-12T09:01:26.501Z,959.4642334
2022-10-12T09:02:27.013Z,959.4657593
2022-10-12T09:03:28.205Z,959.461853
2022-10-12T09:04:28.700Z,959.4625854
2022-10-12T09:05:29.273Z,959.4439087
2022-10-12T09:06:29.778Z,959.4373169
2022-10-12T09:07:30.248Z,959.434082
2022-10-12T09:08:30.705Z,959.4553223
2022-10-12T09:09:31.252Z,959.4732666
2022-10-12T09:10:31.739Z,959.4311523
2022-10-12T09:11:32.335Z,959.484436
2022-10-12T09:12:32.994Z,959.4785767
2022-10-12T09:13:34.372Z,959.4526367
2022-10-12T09:14:34.833Z,959.4503784
2022-10-12T09:15:35.327Z,959.4824829
2022-10-12T09:16:35.845Z,959.4882813
2022-10-12T09:17:36.495Z,959.4795532
2022-10-12T09:18:40.595Z,959.4771729
2022-10-12T09:19:37.664Z,959.4723511
2022-10-12T09:20:38.144Z,959.4592285
2022-10-12T09:21:38.613Z,959.4961548
2022-10-12T09:22:39.936Z,959.4863281
2022-10-12T09:23:40.810Z,959.5020142
2022-10-12T09:24:41.366Z,959.5357056
2022-10-12T09:25:41.963Z,959.5621948
2022-10-12T09:27:13.115Z,959.5882568
2022-10-12T09:28:13.673Z,959.5490723
2022-10-12T09:29:14.203Z,959.5409546
2022-10-12T09:30:14.853Z,959.5647583
2022-10-12T09:31:15.275Z,959.5909424
2022-10-12T09:32:15.783Z,959.5664063
2022-10-12T09:33:16.978Z,959.5647583
2022-10-12T09:34:19.407Z,959.5532837
2022-10-12T09:35:18.403Z,959.5477905
2022-10-12T09:36:18.892Z,959.5460815
2022-10-12T09:37:19.925Z,959.5248413
2022-10-12T09:38:20.692Z,959.5823364
2022-10-12T09:39:23.503Z,959.5418701
2022-10-12T09:40:21.677Z,959.5392456
2022-10-12T09:41:22.140Z,959.5133057
2022-10-12T09:42:22.615Z,959.571228
2022-10-12T09:43:23.972Z,959.5623169
2022-10-12T09:44:24.499Z,959.5650024
2022-10-12T09:45:25.082Z,959.5371704
2022-10-12T09:46:25.741Z,959.5560913
2022-10-12T09:47:26.446Z,959.5593872
2022-10-12T09:48:26.920Z,959.5578003
2022-10-12T09:49:27.387Z,959.5276489
2022-10-12T09:50:28.064Z,959.4403076
2022-10-12T09:51:28.641Z,959.5011597
2022-10-12T09:52:29.794Z,959.4503784
2022-10-12T09:53:31.044Z,959.4389038
2022-10-12T09:54:31.415Z,959.456543
2022-10-12T09:55:31.913Z,959.4385986
2022-10-12T09:56:32.643Z,959.4165649
2022-10-12T09:57:33.254Z,959.4048462
2022-10-12T09:58:33.855Z,959.381897
2022-10-12T09:59:34.319Z,959.413269
2022-10-12T10:00:34.808Z,959.4053345
2022-10-12T10:01:35.503Z,959.4255981
2022-10-12T10:02:36.035Z,959.4206543
2022-10-12T10:03:37.325Z,959.3883057
2022-10-12T10:04:37.790Z,959.3850098
2022-10-12T10:05:38.343Z,959.3937378
2022-10-12T10:06:38.840Z,959.3881836
2022-10-12T10:07:39.482Z,959.4274902
2022-10-12T10:08:40.075Z,959.4130249
2022-10-12T10:09:40.664Z,959.4545288
2022-10-12T10:10:41.151Z,959.4156494
2022-10-12T10:11:42.103Z,959.4425049
2022-10-12T10:13:13.456Z,959.4009399
2022-10-12T10:14:14.057Z,959.4263916
2022-10-12T10:15:14.723Z,959.3953247
2022-10-12T10:16:15.184Z,959.4090576
2022-10-12T10:17:16.432Z,959.4107666
2022-10-12T10:18:17.008Z,959.3950195
2022-10-12T10:19:17.681Z,959.4343262
2022-10-12T10:20:18.521Z,959.4474487
2022-10-12T10:21:18.800Z,959.4497681
2022-10-12T10:22:19.269Z,959.4831543
2022-10-12T10:23:20.430Z,959.4657593
2022-10-12T10:24:20.899Z,959.4631958
2022-10-12T10:25:21.375Z,959.4779663
2022-10-12T10:26:22.681Z,959.4916992
2022-10-12T10:27:23.690Z,959.4639282
2022-10-12T10:28:24.267Z,959.4413452
2022-10-12T10:29:24.665Z,959.4616699
2022-10-12T10:30:30.176Z,959.4724121
2022-10-12T10:31:25.678Z,959.4821777
2022-10-12T10:32:26.121Z,959.475708
2022-10-12T10:33:27.513Z,959.4972534
2022-10-12T10:34:28.022Z,959.4429932
2022-10-12T10:35:28.533Z,959.4949951
2022-10-12T10:36:29.060Z,959.4612427
2022-10-12T10:37:30.196Z,959.4743652
2022-10-12T10:38:30.666Z,959.4753418
2022-10-12T10:39:31.129Z,959.4916992
2022-10-12T10:40:31.641Z,959.4648438
2022-10-12T10:41:32.126Z,959.4956055
2022-10-12T10:42:32.569Z,959.5129395
2022-10-12T10:43:33.948Z,959.4743652
2022-10-12T10:44:34.509Z,959.4927368
2022-10-12T10:45:34.986Z,959.5003052
2022-10-12T10:46:35.447Z,959.5108032
2022-10-12T10:47:36.009Z,959.4698486
2022-10-12T10:48:36.474Z,959.4802856
2022-10-12T10:49:36.988Z,959.4721069
2022-10-12T10:50:38.173Z,959.4721069
2022-10-12T10:51:38.652Z,959.4492188
2022-10-12T10:52:39.142Z,959.4698486
2022-10-12T10:53:40.488Z,959.4731445
2022-10-12T10:54:40.928Z,959.4681396
2022-10-12T10:56:11.974Z,959.4576416
2022-10-12T10:57:12.586Z,959.4609985
2022-10-12T10:58:13.377Z,959.4453125
2022-10-12T10:59:13.828Z,959.4550781
2022-10-12T11:00:37.217Z,959.4351807
2022-10-12T11:01:14.804Z,959.4884644
2022-10-12T11:02:15.279Z,959.4723511
2022-10-12T11:03:15.781Z,959.4765625
2022-10-12T11:04:17.169Z,959.508606